Terminal Aerodrome Forecast
Issued by NWS

Home | Current Version | Previous Version | Text Only | Print | Product List | Glossary On
Versions: 1 2 3 4 5 6 7 8 9 10 11 12 13 14 15 16
000
FTUS46 KMTR 291100
TAFOAK
TAF
KOAK 291130Z 2912/3018 32006KT P6SM SCT007 BKN150
      TEMPO 2912/2916 BKN008
     FM291800 29006KT P6SM SCT012 SCT150
     FM292000 29014KT P6SM SCT150
     FM300400 29008KT P6SM SKC
     FM300900 31005KT P6SM SCT010
     FM301100 27005KT P6SM BKN010=

USA.gov is the U.S. government's official web portal to all federal, state and local government web resources and services.